Al Wafrah, Kuwait

8:53 PM +03 on April 28, 2017 (GMT +0300)
Kuwait International | | Change Station

Elev 180 ft 29.22 °N, 47.98 °E | Updated 53 minutes ago

Clear
Clear
86 °F
Feels Like 86 °F
N
12
Wind Variable Wind from SE

Today
High -- | Low -- °F
--% Chance of Precip.
Yesterday
High -- | Low -- °F
Precip. -- in
Pressure 29.71 in
Visibility 5.0 miles
Clouds Clear
Dew Point 46 °F
Humidity 25%
Rainfall 0.00 in
Snow Depth Not available.
5:10 AM 6:21 PM
Waxing Crescent, 7% visible
METAR OKBK 281700Z 13010KT 8000 SKC 30/08 Q1006 NOSIG
Pressure 29.71 in
Visibility 5.0 miles
Clouds Clear
Dew Point 46 °F
Humidity 25%
Rainfall 0.00 in
Snow Depth Not available.
5:10 AM 6:21 PM
Waxing Crescent, 7% visible
METAR OKBK 281700Z 13010KT 8000 SKC 30/08 Q1006 NOSIG

Get Severe Weather Alerts

Thanks for signing up!

Be on the lookout for a verification email in your inbox.

You'll start receiving the daily forecast at 8 AM.

×

10-Day Weather Forecast

No radar image for this location.
×

Almanac

Astronomy

Apr. 28, 2017 Rise Set
Actual Time
Civil Twilight
Nautical Twilight
Astronomical Twilight
Moon
Length of Visible Light
Length of Day
Tomorrow will be .
, % of the Moon is Illuminated

Today's Extremes

Country Highs Country Lows

Community

WunderPhotos

WunderBlog® & News

Nearby

Air Quality

  Air Quality AQ Index Pollutant
Not available.

Snow Depth

Station Depth Elevation

Earthquake Activity

City Distance Mag. Time & Date
Minimum magnitude displayed is 2.5.

Coastal Water Temperatures

Place Temperature

Stations

Nearby Weather Stations

Station Location Temp. Windchill Dew Point Humidity Wind Precip. Elev Updated Type